Aeroporto :
LOGIN :

Iscrizione | Disclaimer

   EN    FR    IT 

 










Sommario :    VFR   VFR Marginale   IFR   IFR Intensivo   IFR Molto Intensivo
Visibilità : 
Base nubi : 
>= 8 km
>= 3000ft
5 / 8 km
1000 / 3000 ft
1500m / 5 km
500 / 1000 ft
800 / 1500m
200 / 500 ft
< 800m
< 200 ft
Simboli :   Temporali  Nebbia  Neve Forte  Precipitazioni Forti  Vento > 20 kt
SIGMETs :   Varie  Temporali  Ghiacco  Turbolenza  Onda orograficha  Ceneri Vulcaniche






- Altitudine del aeroporto : 23 ft
- Codice IATA : XFW


EDHI - Hamburg Finkenwerder

ULTIMO METAR :
  • 171220Z AUTO 06003KT 040V100 9999 // OVC130/// 06/03 Q1014

METARs OBSOLETI :
  • 171150Z AUTO 08005KT 040V120 9999 // OVC130/// 05/03 Q1014
  • 171120Z AUTO 09004KT 060V120 9000 // FEW140/// BKN210/// 05/03 Q1014
  • 171050Z AUTO 08004KT 060V130 8000 // BKN140/// BKN230/// 04/03 Q1014
  • 171020Z AUTO 10005KT 060V130 8000 // BKN230/// 04/02 Q1015
  • 170950Z AUTO 10004KT 5000 // NCD 03/02 Q1015

Previsioni scadute.



MetMap, La meteo Aeronautica in un colpo d'occhio ! - Copyright ORBIFLY Dicembre 2007 - Disclaimer

ORBIFLY MET'MAP TEAM :

Programmazione e sviluppo : Alexandra Zaïnal
Concezione e sviluppo : Baudouin d'Aumeries
Co-Programmazione e sviluppo : Marc-Olivier Méhu
Supporto tecnico e logistico : Manuel Goepfert
Aiuto per la traduzione : Arnaldo La Scala

Contatto : metmap@orbifly.com




FONTI E CREDITI :

   NOAA